createdAt,value
2019-03-01T00:01:42.489Z,9.53
2019-03-01T00:04:19.638Z,9.57
2019-03-01T00:07:36.677Z,9.56
2019-03-01T00:10:57.795Z,9.55
2019-03-01T00:13:56.857Z,9.55
2019-03-01T00:16:57.319Z,9.55
2019-03-01T00:19:54.857Z,9.52
2019-03-01T00:22:39.178Z,9.48
2019-03-01T00:25:51.803Z,9.48
2019-03-01T00:28:52.934Z,9.52
2019-03-01T00:31:57.627Z,9.51
2019-03-01T00:34:56.407Z,9.52
2019-03-01T00:37:40.959Z,9.51
2019-03-01T00:40:48.639Z,9.49
2019-03-01T00:44:10.053Z,9.51
2019-03-01T00:46:37.195Z,9.51
2019-03-01T00:49:04.242Z,9.48
2019-03-01T00:51:31.288Z,9.45
2019-03-01T00:53:58.477Z,9.45
2019-03-01T00:56:25.564Z,9.40
2019-03-01T00:58:52.614Z,9.37
2019-03-01T01:01:19.701Z,9.38
2019-03-01T01:03:46.752Z,9.33
2019-03-01T01:06:13.815Z,9.30
2019-03-01T01:08:40.877Z,9.28
2019-03-01T01:11:07.923Z,9.26
2019-03-01T01:13:34.980Z,9.27
2019-03-01T01:16:02.100Z,9.25
2019-03-01T01:18:29.139Z,9.25
2019-03-01T01:20:56.175Z,9.25
2019-03-01T01:23:23.544Z,9.24
2019-03-01T01:25:50.595Z,9.21
2019-03-01T01:28:17.661Z,9.20
2019-03-01T01:30:44.851Z,9.19
2019-03-01T01:33:12.151Z,9.19
2019-03-01T01:35:39.192Z,9.19
2019-03-01T01:38:06.242Z,9.20
2019-03-01T01:40:33.343Z,9.20
2019-03-01T01:43:00.392Z,9.18
2019-03-01T01:45:27.462Z,9.16
2019-03-01T01:47:54.543Z,9.14
2019-03-01T01:50:21.598Z,9.16
2019-03-01T01:52:48.649Z,9.12
2019-03-01T01:55:15.742Z,9.12
2019-03-01T01:57:42.801Z,9.10
2019-03-01T02:00:10.656Z,9.09
2019-03-01T02:02:37.877Z,9.05
2019-03-01T02:05:05.432Z,9.08
2019-03-01T02:07:32.482Z,9.05
2019-03-01T02:09:59.555Z,9.02
2019-03-01T02:12:45.070Z,9.05
2019-03-01T02:15:12.736Z,9.04
2019-03-01T02:17:39.837Z,9.00
2019-03-01T02:20:07.942Z,9.00
2019-03-01T02:22:35.039Z,8.98
2019-03-01T02:25:02.106Z,8.99
2019-03-01T02:27:29.448Z,8.92
2019-03-01T02:29:57.912Z,8.93
2019-03-01T02:32:35.381Z,8.89
2019-03-01T02:35:02.582Z,8.87
2019-03-01T02:37:29.756Z,8.85
2019-03-01T02:39:56.794Z,8.82
2019-03-01T02:42:23.875Z,8.82
2019-03-01T02:44:53.024Z,8.79
2019-03-01T02:47:26.401Z,8.78
2019-03-01T02:49:53.453Z,8.77
2019-03-01T02:52:20.501Z,8.77
2019-03-01T02:54:47.587Z,8.76
2019-03-01T02:57:14.635Z,8.75
2019-03-01T02:59:41.702Z,8.77
2019-03-01T03:02:08.792Z,8.73
2019-03-01T03:04:35.866Z,8.72
2019-03-01T03:07:29.688Z,8.69
2019-03-01T03:09:57.044Z,8.67
2019-03-01T03:12:24.123Z,8.63
2019-03-01T03:15:12.192Z,8.62
2019-03-01T03:17:39.243Z,8.61
2019-03-01T03:20:07.552Z,8.64
2019-03-01T03:22:34.637Z,8.65
2019-03-01T03:25:01.729Z,8.66
2019-03-01T03:27:28.786Z,8.64
2019-03-01T03:29:55.904Z,8.65
2019-03-01T03:32:22.939Z,8.66
2019-03-01T03:34:49.972Z,8.66
2019-03-01T03:37:19.400Z,8.70
2019-03-01T03:39:46.444Z,8.68
2019-03-01T03:42:13.543Z,8.71
2019-03-01T03:44:40.656Z,8.72
2019-03-01T03:47:07.705Z,8.70
2019-03-01T03:49:34.756Z,8.69
2019-03-01T03:52:01.844Z,8.70
2019-03-01T03:54:28.883Z,8.68
2019-03-01T03:56:56.063Z,8.71
2019-03-01T03:59:23.175Z,8.73
2019-03-01T04:01:50.217Z,8.72
2019-03-01T04:04:17.267Z,8.72
2019-03-01T04:06:44.322Z,8.76
2019-03-01T04:09:11.374Z,8.76
2019-03-01T04:11:38.439Z,8.75
2019-03-01T04:14:05.626Z,8.75
2019-03-01T04:16:33.064Z,8.74
2019-03-01T04:19:00.112Z,8.75
2019-03-01T04:21:27.199Z,8.76
2019-03-01T04:23:54.275Z,8.75
2019-03-01T04:26:21.341Z,8.76
2019-03-01T04:28:50.129Z,8.78
2019-03-01T04:31:17.203Z,8.78
2019-03-01T04:33:44.247Z,8.78
2019-03-01T04:36:11.330Z,8.81
2019-03-01T04:38:38.383Z,8.79
2019-03-01T04:41:05.424Z,8.79
2019-03-01T04:43:32.505Z,8.81
2019-03-01T04:46:00.571Z,8.82
2019-03-01T04:48:27.632Z,8.81
2019-03-01T04:50:54.752Z,8.83
2019-03-01T04:53:21.827Z,8.86
2019-03-01T04:55:48.882Z,8.83
2019-03-01T04:58:15.991Z,8.82
2019-03-01T05:00:51.214Z,8.83
2019-03-01T05:03:18.283Z,8.83
2019-03-01T05:05:45.457Z,8.80
2019-03-01T05:08:12.507Z,8.81
2019-03-01T05:10:39.554Z,8.78
2019-03-01T05:13:06.648Z,8.77
2019-03-01T05:15:33.683Z,8.75
2019-03-01T05:18:00.845Z,8.76
2019-03-01T05:20:29.802Z,8.74
2019-03-01T05:22:56.875Z,8.73
2019-03-01T05:25:23.923Z,8.72
2019-03-01T05:27:51.226Z,8.70
2019-03-01T05:30:18.331Z,8.66
2019-03-01T05:32:47.941Z,8.63
2019-03-01T05:35:15.029Z,8.61
2019-03-01T05:37:42.083Z,8.63
2019-03-01T05:40:10.345Z,8.59
2019-03-01T05:42:37.424Z,8.60
2019-03-01T05:45:06.795Z,8.58
2019-03-01T05:47:33.830Z,8.61
2019-03-01T05:50:01.105Z,8.59
2019-03-01T05:52:28.162Z,8.57
2019-03-01T05:54:55.230Z,8.57
2019-03-01T05:57:22.344Z,8.56
2019-03-01T05:59:49.401Z,8.55
2019-03-01T06:03:04.472Z,8.53
2019-03-01T06:05:44.010Z,8.51
2019-03-01T06:08:25.736Z,8.50
2019-03-01T06:11:08.041Z,8.49
2019-03-01T06:13:54.479Z,8.48
2019-03-01T06:16:57.906Z,8.47
2019-03-01T06:19:53.574Z,8.44
2019-03-01T06:26:18.149Z,8.44
2019-03-01T06:29:19.302Z,8.40
2019-03-01T06:32:33.278Z,8.39
2019-03-01T06:35:26.579Z,8.42
2019-03-01T06:39:08.360Z,8.35
2019-03-01T06:41:56.876Z,8.30
2019-03-01T06:45:08.066Z,8.26
2019-03-01T06:47:47.370Z,8.22
2019-03-01T06:50:19.408Z,8.18
2019-03-01T06:52:47.019Z,8.17
2019-03-01T06:55:38.960Z,8.17
2019-03-01T06:58:08.354Z,8.11
2019-03-01T07:00:47.308Z,8.06
2019-03-01T07:03:09.024Z,8.02
2019-03-01T07:05:36.089Z,7.95
2019-03-01T07:08:03.148Z,7.94
2019-03-01T07:10:30.259Z,7.90
2019-03-01T07:12:57.316Z,7.88
2019-03-01T07:15:24.497Z,7.88
2019-03-01T07:17:51.611Z,7.87
2019-03-01T07:20:18.699Z,7.83
2019-03-01T07:22:45.765Z,7.79
2019-03-01T07:25:12.893Z,7.76
2019-03-01T07:27:39.960Z,7.79
2019-03-01T07:30:07.611Z,7.76
2019-03-01T07:32:34.815Z,7.74
2019-03-01T07:35:16.945Z,7.72
2019-03-01T07:37:44.063Z,7.66
2019-03-01T07:40:11.143Z,7.64
2019-03-01T07:42:38.217Z,7.56
2019-03-01T07:45:06.600Z,7.57
2019-03-01T07:47:34.282Z,7.54
2019-03-01T07:50:02.551Z,7.56
2019-03-01T07:52:29.640Z,7.57
2019-03-01T07:54:56.689Z,7.51
2019-03-01T07:57:23.726Z,7.54
2019-03-01T07:59:50.920Z,7.48
2019-03-01T08:02:18.023Z,7.45
2019-03-01T08:04:45.331Z,7.48
2019-03-01T08:07:12.639Z,7.48
2019-03-01T08:09:41.381Z,7.47
2019-03-01T08:12:08.679Z,7.46
2019-03-01T08:14:35.767Z,7.46
2019-03-01T08:17:03.603Z,7.50
2019-03-01T08:19:30.777Z,7.48
2019-03-01T08:21:57.872Z,7.50
2019-03-01T08:24:24.920Z,7.49
2019-03-01T08:26:52.026Z,7.48
2019-03-01T08:29:19.135Z,7.47
2019-03-01T08:31:47.434Z,7.47
2019-03-01T08:34:17.636Z,7.46
2019-03-01T08:36:43.731Z,7.43
2019-03-01T08:39:10.886Z,7.40
2019-03-01T08:41:37.954Z,7.40
2019-03-01T08:44:05.023Z,7.40
2019-03-01T08:46:32.127Z,7.43
2019-03-01T08:48:59.353Z,7.43
2019-03-01T08:51:27.633Z,7.41
2019-03-01T08:53:54.803Z,7.39
2019-03-01T08:56:26.108Z,7.39
2019-03-01T08:58:50.917Z,7.39
2019-03-01T09:01:18.068Z,7.39
2019-03-01T09:03:55.419Z,7.40
2019-03-01T09:06:30.048Z,7.42
2019-03-01T09:08:57.100Z,7.45
2019-03-01T09:11:24.164Z,7.48
2019-03-01T09:13:51.221Z,7.53
2019-03-01T09:16:18.547Z,7.62
2019-03-01T09:18:46.649Z,7.70
2019-03-01T09:21:14.642Z,7.74
2019-03-01T09:23:41.685Z,7.71
2019-03-01T09:26:08.873Z,7.67
2019-03-01T09:28:39.470Z,7.75
2019-03-01T09:31:04.988Z,7.81
2019-03-01T09:33:32.036Z,7.87
2019-03-01T09:36:09.130Z,7.88
2019-03-01T09:38:39.426Z,7.87
2019-03-01T09:41:05.432Z,7.84
2019-03-01T09:43:32.523Z,7.84
2019-03-01T09:45:59.601Z,7.85
2019-03-01T09:48:26.675Z,7.83
2019-03-01T09:50:53.893Z,7.83
2019-03-01T09:53:20.967Z,7.80
2019-03-01T09:55:48.125Z,7.80
2019-03-01T09:58:15.475Z,7.75
2019-03-01T10:00:55.652Z,7.74
2019-03-01T10:03:14.602Z,7.76
2019-03-01T10:05:41.722Z,7.76
2019-03-01T10:08:17.008Z,7.74
2019-03-01T10:10:44.217Z,7.75
2019-03-01T10:13:11.313Z,7.73
2019-03-01T10:15:38.375Z,7.74
2019-03-01T10:18:05.455Z,7.77
2019-03-01T10:20:32.504Z,7.70
2019-03-01T10:22:59.580Z,7.69
2019-03-01T10:25:26.666Z,7.72
2019-03-01T10:27:53.772Z,7.70
2019-03-01T10:30:20.855Z,7.67
2019-03-01T10:32:48.150Z,7.66
2019-03-01T10:35:15.271Z,7.66
2019-03-01T10:37:42.789Z,7.63
2019-03-01T10:40:11.967Z,7.65
2019-03-01T10:42:39.070Z,7.71
2019-03-01T10:45:08.835Z,7.76
2019-03-01T10:47:35.912Z,7.77
2019-03-01T10:50:05.608Z,7.80
2019-03-01T10:52:50.772Z,7.84
2019-03-01T10:55:18.048Z,7.87
2019-03-01T10:57:45.234Z,7.81
2019-03-01T11:00:23.943Z,7.82
2019-03-01T11:02:50.980Z,7.82
2019-03-01T11:05:18.384Z,7.85
2019-03-01T11:07:46.130Z,7.85
2019-03-01T11:10:15.743Z,7.86
2019-03-01T11:12:42.809Z,7.87
2019-03-01T11:15:10.827Z,7.87
2019-03-01T11:17:37.897Z,7.85
2019-03-01T11:20:05.546Z,7.85
2019-03-01T11:22:32.891Z,7.85
2019-03-01T11:24:59.941Z,7.81
2019-03-01T11:27:27.061Z,7.78
2019-03-01T11:29:55.184Z,7.76
2019-03-01T11:32:22.303Z,7.75
2019-03-01T11:34:49.412Z,7.73
2019-03-01T11:37:19.395Z,7.72
2019-03-01T11:39:46.507Z,7.64
2019-03-01T11:42:13.819Z,7.58
2019-03-01T11:44:40.893Z,7.57
2019-03-01T11:47:09.057Z,7.55
2019-03-01T11:49:36.619Z,7.45
2019-03-01T11:52:04.690Z,7.30
2019-03-01T11:54:31.907Z,7.26
2019-03-01T11:56:58.983Z,7.17
2019-03-01T11:59:26.074Z,7.07
2019-03-01T12:01:53.191Z,6.98
2019-03-01T12:04:20.281Z,6.97
2019-03-01T12:06:47.405Z,6.90
2019-03-01T12:09:14.506Z,6.89
2019-03-01T12:11:59.973Z,6.86
2019-03-01T12:14:27.104Z,6.77
2019-03-01T12:16:54.150Z,6.71
2019-03-01T12:19:21.318Z,6.65
2019-03-01T12:21:48.448Z,6.62
2019-03-01T12:24:15.658Z,6.60
2019-03-01T12:26:44.550Z,6.55
2019-03-01T12:29:11.669Z,6.52
2019-03-01T12:31:38.896Z,6.50
2019-03-01T12:34:07.640Z,6.56
2019-03-01T12:36:34.758Z,6.65
2019-03-01T12:39:03.036Z,6.77
2019-03-01T12:41:30.087Z,6.77
2019-03-01T12:43:57.187Z,6.77
2019-03-01T12:46:24.294Z,6.77
2019-03-01T12:48:51.469Z,6.73
2019-03-01T12:51:18.546Z,6.71
2019-03-01T12:53:45.690Z,6.71
2019-03-01T12:56:12.834Z,6.73
2019-03-01T12:58:39.954Z,6.80
2019-03-01T13:01:07.169Z,6.86
2019-03-01T13:03:34.239Z,6.82
2019-03-01T13:06:03.827Z,6.81
2019-03-01T13:08:30.294Z,6.80
2019-03-01T13:10:57.385Z,6.78
2019-03-01T13:13:24.548Z,6.82
2019-03-01T13:15:52.378Z,6.78
2019-03-01T13:18:19.652Z,6.81
2019-03-01T13:20:46.852Z,6.83
2019-03-01T13:23:14.021Z,6.87
2019-03-01T13:25:41.147Z,6.91
2019-03-01T13:28:08.234Z,6.90
2019-03-01T13:30:36.635Z,6.91
2019-03-01T13:33:13.428Z,6.93
2019-03-01T13:35:40.943Z,6.98
2019-03-01T13:38:44.663Z,6.99
2019-03-01T13:41:12.270Z,7.01
2019-03-01T13:43:39.365Z,7.00
2019-03-01T13:46:06.423Z,7.00
2019-03-01T13:48:33.538Z,7.02
2019-03-01T13:51:00.623Z,7.05
2019-03-01T13:53:30.231Z,7.08
2019-03-01T13:56:11.785Z,7.15
2019-03-01T13:58:38.898Z,7.15
2019-03-01T14:01:06.884Z,7.14
2019-03-01T14:03:33.939Z,7.13
2019-03-01T14:06:02.239Z,7.12
2019-03-01T14:08:29.417Z,7.12
2019-03-01T14:10:56.502Z,7.14
2019-03-01T14:13:23.860Z,7.17
2019-03-01T14:15:51.038Z,7.20
2019-03-01T14:18:18.138Z,7.21
2019-03-01T14:20:45.206Z,7.21
2019-03-01T14:23:12.390Z,7.27
2019-03-01T14:25:41.646Z,7.19
2019-03-01T14:28:08.610Z,7.17
2019-03-01T14:30:35.654Z,7.20
2019-03-01T14:33:02.893Z,7.22
2019-03-01T14:35:31.197Z,7.23
2019-03-01T14:37:58.282Z,7.26
2019-03-01T14:40:27.214Z,7.28
2019-03-01T14:42:54.304Z,7.28
2019-03-01T14:45:22.697Z,7.28
2019-03-01T14:47:50.099Z,7.28
2019-03-01T14:50:18.987Z,7.27
2019-03-01T14:53:22.853Z,7.27
2019-03-01T14:55:55.576Z,7.26
2019-03-01T14:58:40.079Z,7.20
2019-03-01T15:01:29.596Z,7.21
2019-03-01T15:03:56.811Z,7.19
2019-03-01T15:06:24.879Z,7.16
2019-03-01T15:08:51.937Z,7.16
2019-03-01T15:11:20.887Z,7.15
2019-03-01T15:13:49.109Z,7.13
2019-03-01T15:16:16.192Z,7.12
2019-03-01T15:18:43.459Z,7.08
2019-03-01T15:21:11.320Z,7.04
2019-03-01T15:23:38.507Z,7.05
2019-03-01T15:26:09.956Z,7.00
2019-03-01T15:28:53.903Z,7.01
2019-03-01T15:31:17.780Z,6.95
2019-03-01T15:33:47.095Z,6.93
2019-03-01T15:36:17.991Z,6.91
2019-03-01T15:38:43.056Z,6.90
2019-03-01T15:41:10.453Z,6.88
2019-03-01T15:43:37.513Z,6.90
2019-03-01T15:46:04.812Z,6.93
2019-03-01T15:48:34.529Z,6.90
2019-03-01T15:51:02.520Z,6.90
2019-03-01T15:53:29.866Z,6.90
2019-03-01T15:55:56.960Z,6.90
2019-03-01T15:58:33.147Z,6.89
2019-03-01T16:01:00.406Z,6.92
2019-03-01T16:03:27.572Z,6.90
2019-03-01T16:05:54.644Z,6.89
2019-03-01T16:08:21.754Z,6.87
2019-03-01T16:10:48.910Z,6.85
2019-03-01T16:13:15.974Z,6.82
2019-03-01T16:15:43.068Z,6.80
2019-03-01T16:18:19.012Z,6.75
2019-03-01T16:20:54.338Z,6.72
2019-03-01T16:23:33.927Z,6.69
2019-03-01T16:26:01.037Z,6.68
2019-03-01T16:28:31.154Z,6.61
2019-03-01T16:30:57.076Z,6.62
2019-03-01T16:33:26.324Z,6.59
2019-03-01T16:35:53.176Z,6.57
2019-03-01T16:38:20.292Z,6.57
2019-03-01T16:40:47.371Z,6.55
2019-03-01T16:43:14.508Z,6.53
2019-03-01T16:45:41.556Z,6.52
2019-03-01T16:48:08.741Z,6.52
2019-03-01T16:50:35.833Z,6.49
2019-03-01T16:53:04.773Z,6.48
2019-03-01T16:55:31.990Z,6.48
2019-03-01T16:58:07.510Z,6.46
2019-03-01T17:00:33.762Z,6.46
2019-03-01T17:03:00.791Z,6.45
2019-03-01T17:05:35.811Z,6.43
2019-03-01T17:08:05.789Z,6.43
2019-03-01T17:10:32.507Z,6.42
2019-03-01T17:12:59.791Z,6.43
2019-03-01T17:15:26.851Z,6.41
2019-03-01T17:17:53.978Z,6.41
2019-03-01T17:20:21.061Z,6.38
2019-03-01T17:22:48.324Z,6.39
2019-03-01T17:25:19.515Z,6.39
2019-03-01T17:27:46.732Z,6.36
2019-03-01T17:30:17.766Z,6.37
2019-03-01T17:32:45.031Z,6.37
2019-03-01T17:35:12.764Z,6.38
2019-03-01T17:37:40.663Z,6.37
2019-03-01T17:40:08.621Z,6.36
2019-03-01T17:42:35.684Z,6.38
2019-03-01T17:45:58.554Z,6.38
2019-03-01T17:48:25.694Z,6.38
2019-03-01T17:50:52.850Z,6.38
2019-03-01T17:53:19.930Z,6.37
2019-03-01T17:55:46.992Z,6.37
2019-03-01T17:58:14.237Z,6.36
2019-03-01T18:00:41.706Z,6.38
2019-03-01T18:03:08.762Z,6.38
2019-03-01T18:05:40.610Z,6.38
2019-03-01T18:08:06.846Z,6.39
2019-03-01T18:10:33.971Z,6.37
2019-03-01T18:13:37.601Z,6.37
2019-03-01T18:16:24.874Z,6.34
2019-03-01T18:18:54.464Z,6.34
2019-03-01T18:21:21.682Z,6.31
2019-03-01T18:23:50.355Z,6.29
2019-03-01T18:26:17.449Z,6.29
2019-03-01T18:28:44.573Z,6.26
2019-03-01T18:31:50.338Z,6.26
2019-03-01T18:34:17.595Z,6.25
2019-03-01T18:36:46.053Z,6.24
2019-03-01T18:39:13.159Z,6.24
2019-03-01T18:42:16.892Z,6.24
2019-03-01T18:44:43.959Z,6.25
2019-03-01T18:47:11.018Z,6.25
2019-03-01T18:49:38.179Z,6.25
2019-03-01T18:52:59.826Z,6.22
2019-03-01T18:55:27.001Z,6.25
2019-03-01T18:57:54.155Z,6.26
2019-03-01T19:00:23.974Z,6.22
2019-03-01T19:06:22.896Z,6.20
2019-03-01T19:08:50.023Z,6.22
2019-03-01T19:11:17.212Z,6.22
2019-03-01T19:13:44.506Z,6.23
2019-03-01T19:16:56.483Z,6.23
2019-03-01T19:19:29.710Z,6.22
2019-03-01T19:21:53.681Z,6.20
2019-03-01T19:24:20.772Z,6.20
2019-03-01T19:26:48.026Z,6.18
2019-03-01T19:29:15.215Z,6.16
2019-03-01T19:31:42.282Z,6.16
2019-03-01T19:34:09.381Z,6.16
2019-03-01T19:36:38.889Z,6.14
2019-03-01T19:39:15.119Z,6.13
2019-03-01T19:41:42.319Z,6.15
2019-03-01T19:44:09.432Z,6.17
2019-03-01T19:46:36.689Z,6.18
2019-03-01T19:49:03.798Z,6.16
2019-03-01T19:51:33.730Z,6.17
2019-03-01T19:54:01.204Z,6.16
2019-03-01T19:56:29.118Z,6.16
2019-03-01T19:58:56.184Z,6.16
2019-03-01T20:01:23.319Z,6.15
2019-03-01T20:03:50.388Z,6.12
2019-03-01T20:06:17.488Z,6.13
2019-03-01T20:08:44.855Z,6.14
2019-03-01T20:11:11.921Z,6.11
2019-03-01T20:13:39.023Z,6.09
2019-03-01T20:16:06.141Z,6.10
2019-03-01T20:18:33.208Z,6.09
2019-03-01T20:21:00.362Z,6.08
2019-03-01T20:23:29.545Z,6.08
2019-03-01T20:26:01.161Z,6.08
2019-03-01T20:28:28.214Z,6.07
2019-03-01T20:30:55.326Z,6.10
2019-03-01T20:33:23.468Z,6.12
2019-03-01T20:35:54.544Z,6.13
2019-03-01T20:38:21.663Z,6.12
2019-03-01T20:40:48.745Z,6.11
2019-03-01T20:43:53.932Z,6.12
2019-03-01T20:46:27.632Z,6.15
2019-03-01T20:48:54.694Z,6.14
2019-03-01T20:51:26.293Z,6.14
2019-03-01T20:53:51.064Z,6.16
2019-03-01T20:57:10.197Z,6.16
2019-03-01T20:59:39.087Z,6.19
2019-03-01T21:02:09.611Z,6.19
2019-03-01T21:04:36.656Z,6.21
2019-03-01T21:07:04.470Z,6.19
2019-03-01T21:09:31.534Z,6.19
2019-03-01T21:12:01.080Z,6.17
2019-03-01T21:14:27.874Z,6.17
2019-03-01T21:16:55.140Z,6.21
2019-03-01T21:19:22.234Z,6.22
2019-03-01T21:21:49.429Z,6.22
2019-03-01T21:24:16.506Z,6.23
2019-03-01T21:26:43.722Z,6.22
2019-03-01T21:29:12.426Z,6.25
2019-03-01T21:31:39.785Z,6.24
2019-03-01T21:34:06.912Z,6.26
2019-03-01T21:36:34.129Z,6.26
2019-03-01T21:39:01.374Z,6.25
2019-03-01T21:41:28.445Z,6.25
2019-03-01T21:43:55.506Z,6.24
2019-03-01T21:46:22.686Z,6.22
2019-03-01T21:48:49.756Z,6.20
2019-03-01T21:51:18.432Z,6.18
2019-03-01T21:53:46.021Z,6.17
2019-03-01T21:56:13.067Z,6.18
2019-03-01T21:58:41.927Z,6.16
2019-03-01T22:01:09.151Z,6.17
2019-03-01T22:03:36.222Z,6.16
2019-03-01T22:06:03.289Z,6.18
2019-03-01T22:08:30.399Z,6.19
2019-03-01T22:10:57.466Z,6.23
2019-03-01T22:13:24.541Z,6.22
2019-03-01T22:15:51.595Z,6.23
2019-03-01T22:18:20.452Z,6.22
2019-03-01T22:20:47.766Z,6.21
2019-03-01T22:23:15.794Z,6.22
2019-03-01T22:25:43.677Z,6.19
2019-03-01T22:28:10.782Z,6.21
2019-03-01T22:30:37.876Z,6.22
2019-03-01T22:33:04.954Z,6.18
2019-03-01T22:35:32.055Z,6.20
2019-03-01T22:38:00.831Z,6.18
2019-03-01T22:40:29.399Z,6.19
2019-03-01T22:42:56.630Z,6.21
2019-03-01T22:45:23.740Z,6.23
2019-03-01T22:47:50.847Z,6.21
2019-03-01T22:50:18.146Z,6.18
2019-03-01T22:52:45.379Z,6.16
2019-03-01T22:55:47.077Z,6.18
2019-03-01T22:58:14.188Z,6.16
2019-03-01T23:01:16.042Z,6.17
2019-03-01T23:03:45.725Z,6.18
2019-03-01T23:06:14.747Z,6.14
2019-03-01T23:09:10.661Z,6.18
2019-03-01T23:11:38.888Z,6.17
2019-03-01T23:14:05.971Z,6.16
2019-03-01T23:16:33.066Z,6.16
2019-03-01T23:19:00.108Z,6.15
2019-03-01T23:21:27.187Z,6.15
2019-03-01T23:23:55.910Z,6.12
2019-03-01T23:26:23.266Z,6.07
2019-03-01T23:28:50.292Z,6.08
2019-03-01T23:31:17.381Z,6.08
2019-03-01T23:33:44.548Z,6.09
2019-03-01T23:36:11.639Z,6.07
2019-03-01T23:38:38.813Z,6.06
2019-03-01T23:41:07.747Z,6.05
2019-03-01T23:43:43.187Z,6.03
2019-03-01T23:46:10.359Z,6.03
2019-03-01T23:48:37.434Z,6.01
2019-03-01T23:51:06.685Z,6.02
2019-03-01T23:53:34.105Z,6.03
2019-03-01T23:56:01.265Z,6.02
2019-03-01T23:58:28.369Z,6.03
